TAF KPVU
KPVU 090555Z 0906/1006 19010KT P6SM VCSH BKN050 OVC090 FM091000 21008KT 6SM -RA SCT015 OVC030 FM091300 32008KT 3SM -RASN BKN015 OVC025 FM091600 30009KT 1SM -SN BKN007 OVC020 FM092300 31014KT 3SM -SHSN SCT007 BKN010 FM100300 32008KT P6SM SCT050 BKN070=
METAR KPVU
WC KPVU
WS KPVU
WV KPVU